This is the latest recevied weather packets stored in our database for station/object SV4FHR-2. If no packets are shown the sender has not sent any weather packets the latest 10 day(s).
| Time | Temp. | Humidity | Pressure | Rain* | Wind** | Luminosity | Snow |
|---|---|---|---|---|---|---|---|
| 1777920384 | 14.44° C | 65% | 1015 hPa | 0 mm | - | - | - |
| 1777920084 | 14.44° C | 65% | 1015 hPa | 0 mm | - | - | - |
| 1777919784 | 13.89° C | 67% | 1014.9 hPa | 0 mm | - | - | - |
| 1777919484 | 13.89° C | 69% | 1014.8 hPa | 0 mm | - | - | - |
| 1777919184 | 14.44° C | 68% | 1014.8 hPa | 0 mm | - | - | - |
| 1777918884 | 14.44° C | 69% | 1014.8 hPa | 0 mm | - | - | - |
| 1777918585 | 14.44° C | 69% | 1014.9 hPa | 0 mm | - | - | - |
| 1777918284 | 14.44° C | 69% | 1014.9 hPa | 0 mm | - | - | - |
| 1777917984 | 15° C | 68% | 1014.9 hPa | 0 mm | - | - | - |
| 1777917684 | 15° C | 68% | 1014.9 hPa | 0 mm | - | - | - |
| 1777917383 | 15.56° C | 69% | 1014.7 hPa | 0 mm | - | - | - |
| 1777917085 | 15.56° C | 68% | 1014.8 hPa | 0 mm | - | - | - |
| 1777916784 | 16.11° C | 67% | 1014.7 hPa | 0 mm | - | - | - |
| 1777916484 | 16.11° C | 66% | 1014.4 hPa | 0 mm | - | - | - |
| 1777916184 | 16.67° C | 65% | 1014.5 hPa | 0 mm | - | - | - |
| 1777915883 | 16.67° C | 62% | 1014.6 hPa | 0 mm | - | - | - |
| 1777915583 | 17.22° C | 59% | 1014.5 hPa | 0 mm | - | - | - |
| 1777845594 | 5° C | 91% | 1016.5 hPa | 0 mm | - | - | - |
| 1777845294 | 5° C | 91% | 1016.6 hPa | 0 mm | - | - | - |
| 1777844994 | 5° C | 91% | 1016.7 hPa | 0 mm | - | - | - |
| 1777844694 | 5.56° C | 91% | 1016.6 hPa | 0 mm | - | - | - |
| 1777844364 | 5.56° C | 91% | 1016.4 hPa | 0 mm | - | - | - |
| 1777844064 | 5.56° C | 91% | 1016.6 hPa | 0 mm | - | - | - |
| 1777843765 | 5.56° C | 91% | 1016.6 hPa | 0 mm | - | - | - |
| 1777843465 | 5.56° C | 90% | 1016.5 hPa | 0 mm | - | - | - |
* Rain latest hour (hover to see other rain measurements)
** Current wind speed in m/s (hover to see current wind gust speed)